createdAt,value
2023-01-07T00:03:37.812Z,15.65
2023-01-07T00:06:07.303Z,13.35
2023-01-07T00:08:36.730Z,12.45
2023-01-07T00:14:50.340Z,12.27
2023-01-07T00:17:17.128Z,12.48
2023-01-07T00:19:43.905Z,14.68
2023-01-07T00:22:34.958Z,13.57
2023-01-07T00:25:01.786Z,13.50
2023-01-07T00:27:28.559Z,10.38
2023-01-07T00:29:55.315Z,16.00
2023-01-07T00:40:43.765Z,11.65
2023-01-07T00:46:58.154Z,10.23
2023-01-07T00:50:01.781Z,12.75
2023-01-07T00:52:28.591Z,9.10
2023-01-07T00:58:35.744Z,10.30
2023-01-07T01:01:03.263Z,10.25
2023-01-07T01:03:44.497Z,12.00
2023-01-07T01:06:15.057Z,11.85
2023-01-07T01:09:01.885Z,9.10
2023-01-07T01:11:28.671Z,9.65
2023-01-07T01:13:55.498Z,10.50
2023-01-07T01:16:22.389Z,9.00
2023-01-07T01:22:29.145Z,12.63
2023-01-07T01:28:44.089Z,8.27
2023-01-07T01:31:11.411Z,11.27
2023-01-07T01:37:18.654Z,7.25
2023-01-07T01:39:45.591Z,7.63
2023-01-07T01:42:18.269Z,10.00
2023-01-07T01:44:51.139Z,9.48
2023-01-07T01:47:20.931Z,8.90
2023-01-07T01:50:04.556Z,7.65
2023-01-07T01:52:53.806Z,7.50
2023-01-07T01:55:25.925Z,11.27
2023-01-07T02:01:47.418Z,9.05
2023-01-07T02:04:19.844Z,8.52
2023-01-07T02:07:20.459Z,10.20
2023-01-07T02:10:36.267Z,11.18
2023-01-07T02:13:42.988Z,9.93
2023-01-07T02:16:09.739Z,7.85
2023-01-07T02:22:56.993Z,10.02
2023-01-07T02:25:28.958Z,12.00
2023-01-07T02:28:14.123Z,7.15
2023-01-07T02:34:32.492Z,7.45
2023-01-07T02:44:51.555Z,7.90
2023-01-07T02:51:05.718Z,11.30
2023-01-07T02:53:58.788Z,9.68
2023-01-07T03:00:14.500Z,7.28
2023-01-07T03:03:30.053Z,6.55
2023-01-07T03:05:56.781Z,5.68
2023-01-07T03:08:42.913Z,6.10
2023-01-07T03:11:11.244Z,6.03
2023-01-07T03:13:48.060Z,10.73
2023-01-07T03:16:36.714Z,5.55
2023-01-07T03:22:47.184Z,7.47
2023-01-07T03:25:14.613Z,7.90
2023-01-07T03:27:44.709Z,6.47
2023-01-07T03:33:55.024Z,8.75
2023-01-07T03:36:27.784Z,7.13
2023-01-07T03:38:56.395Z,11.35
2023-01-07T03:41:41.883Z,18.67
2023-01-07T03:44:08.708Z,6.57
2023-01-07T03:46:37.575Z,9.45
2023-01-07T03:49:04.732Z,6.05
2023-01-07T03:51:31.535Z,7.70
2023-01-07T03:53:58.321Z,8.63
2023-01-07T03:56:25.087Z,4.97
2023-01-07T03:58:51.880Z,6.22
2023-01-07T04:01:18.715Z,6.00
2023-01-07T04:03:45.528Z,7.43
2023-01-07T04:06:12.540Z,6.45
2023-01-07T04:08:39.412Z,7.70
2023-01-07T04:11:06.257Z,7.72
2023-01-07T04:13:32.987Z,6.55
2023-01-07T04:15:59.744Z,5.18
2023-01-07T04:18:26.523Z,6.80
2023-01-07T04:20:53.388Z,6.13
2023-01-07T04:23:20.238Z,9.27
2023-01-07T04:29:42.672Z,7.85
2023-01-07T04:35:57.871Z,8.25
2023-01-07T04:38:46.563Z,8.07
2023-01-07T04:41:13.329Z,7.40
2023-01-07T04:43:40.110Z,5.80
2023-01-07T04:46:06.944Z,9.63
2023-01-07T04:48:33.876Z,6.93
2023-01-07T04:51:00.772Z,12.88
2023-01-07T04:53:27.526Z,5.43
2023-01-07T05:03:47.617Z,5.53
2023-01-07T05:06:14.375Z,7.18
2023-01-07T05:08:41.272Z,7.15
2023-01-07T05:11:08.041Z,6.28
2023-01-07T05:13:35.545Z,7.18
2023-01-07T05:16:03.631Z,5.43
2023-01-07T05:18:30.593Z,10.93
2023-01-07T05:20:57.412Z,9.88
2023-01-07T05:23:24.159Z,7.97
2023-01-07T05:29:38.808Z,11.52
2023-01-07T05:35:52.748Z,11.82
2023-01-07T05:39:00.172Z,10.07
2023-01-07T05:41:26.989Z,10.27
2023-01-07T05:43:53.814Z,14.25
2023-01-07T05:46:20.674Z,9.90
2023-01-07T05:48:47.619Z,10.90
2023-01-07T05:51:14.388Z,11.77
2023-01-07T05:53:52.832Z,11.70
2023-01-07T05:56:19.625Z,9.27
2023-01-07T05:58:46.392Z,12.50
2023-01-07T06:01:13.298Z,11.57
2023-01-07T06:03:40.157Z,13.20
2023-01-07T06:06:09.679Z,14.23
2023-01-07T06:08:37.913Z,10.60
2023-01-07T06:14:53.825Z,12.10
2023-01-07T06:21:02.374Z,16.95
2023-01-07T06:23:29.581Z,19.20
2023-01-07T06:29:44.881Z,13.95
2023-01-07T06:32:11.679Z,16.25
2023-01-07T06:34:38.564Z,19.25
2023-01-07T06:37:05.841Z,15.55
2023-01-07T06:39:32.610Z,15.82
2023-01-07T06:41:59.478Z,12.75
2023-01-07T06:44:26.304Z,28.45
2023-01-07T06:46:53.170Z,22.65
2023-01-07T06:49:19.954Z,21.23
2023-01-07T06:51:46.787Z,23.92
2023-01-07T06:54:13.613Z,18.90
2023-01-07T06:56:40.356Z,20.45
2023-01-07T06:59:07.101Z,15.60
2023-01-07T07:05:20.936Z,18.77
2023-01-07T07:07:47.923Z,18.33
2023-01-07T07:10:14.860Z,20.17
2023-01-07T07:12:41.757Z,20.17
2023-01-07T07:15:09.621Z,22.48
2023-01-07T07:17:36.369Z,20.20
2023-01-07T07:20:03.534Z,17.17
2023-01-07T07:22:30.302Z,20.15
2023-01-07T07:24:57.070Z,22.13
2023-01-07T07:27:23.846Z,21.90
2023-01-07T07:29:50.706Z,22.25
2023-01-07T07:32:17.582Z,18.02
2023-01-07T07:34:44.330Z,23.70
2023-01-07T07:37:14.228Z,21.73
2023-01-07T07:39:41.000Z,27.42
2023-01-07T07:42:07.803Z,25.17
2023-01-07T07:44:34.552Z,19.65
2023-01-07T07:47:01.328Z,19.08
2023-01-07T07:49:28.200Z,20.65
2023-01-07T07:51:55.112Z,20.45
2023-01-07T07:54:23.869Z,24.08
2023-01-07T07:56:50.845Z,22.85
2023-01-07T07:59:17.575Z,24.17
2023-01-07T08:01:44.434Z,22.45
2023-01-07T08:04:11.236Z,23.10
2023-01-07T08:06:37.995Z,21.05
2023-01-07T08:09:04.784Z,23.67
2023-01-07T08:11:31.567Z,21.33
2023-01-07T08:13:58.295Z,20.95
2023-01-07T08:16:25.157Z,21.10
2023-01-07T08:18:51.919Z,26.05
2023-01-07T08:21:18.683Z,23.38
2023-01-07T08:23:45.436Z,27.02
2023-01-07T08:26:12.247Z,36.70
2023-01-07T08:28:39.264Z,27.13
2023-01-07T08:31:07.648Z,28.48
2023-01-07T08:33:37.696Z,31.80
2023-01-07T08:36:09.353Z,36.58
2023-01-07T08:38:38.828Z,25.75
2023-01-07T08:41:06.160Z,32.28
2023-01-07T08:43:33.418Z,47.08
2023-01-07T08:46:00.176Z,34.38
2023-01-07T08:48:26.916Z,34.25
2023-01-07T08:54:43.985Z,50.42
2023-01-07T08:57:10.771Z,39.15
2023-01-07T08:59:39.801Z,45.65
2023-01-07T09:02:20.071Z,43.60
2023-01-07T09:04:46.860Z,49.28
2023-01-07T09:07:13.599Z,40.67
2023-01-07T09:09:41.311Z,40.60
2023-01-07T09:12:11.399Z,40.20
2023-01-07T09:15:02.967Z,40.55
2023-01-07T09:29:23.757Z,44.47
2023-01-07T09:32:00.564Z,41.72
2023-01-07T09:34:27.298Z,42.63
2023-01-07T09:36:54.096Z,44.35
2023-01-07T09:39:20.890Z,47.92
2023-01-07T09:45:57.150Z,51.85
2023-01-07T09:48:42.461Z,53.03
2023-01-07T09:55:01.809Z,53.67
2023-01-07T09:57:28.809Z,52.17
2023-01-07T10:03:47.032Z,55.08
2023-01-07T10:06:47.634Z,48.05
2023-01-07T10:09:32.005Z,48.80
2023-01-07T10:12:04.343Z,47.50
2023-01-07T10:15:08.121Z,45.70
2023-01-07T10:17:43.440Z,39.47
2023-01-07T10:20:48.617Z,36.03
2023-01-07T10:23:26.124Z,35.20
2023-01-07T10:29:36.431Z,36.47
2023-01-07T10:32:17.880Z,25.67
2023-01-07T10:34:47.671Z,26.73
2023-01-07T10:37:29.285Z,19.45
2023-01-07T10:40:13.617Z,17.65
2023-01-07T10:42:57.127Z,16.23
2023-01-07T11:36:15.121Z,6.57
2023-01-07T11:38:42.445Z,4.82
2023-01-07T11:41:25.153Z,4.38
2023-01-07T11:43:54.639Z,5.15
2023-01-07T12:33:48.210Z,3.50
2023-01-07T12:44:21.146Z,5.93
2023-01-07T12:50:48.088Z,4.88
2023-01-07T12:57:52.954Z,4.43
2023-01-07T13:04:28.282Z,3.63
2023-01-07T13:18:40.767Z,4.25
2023-01-07T13:21:16.104Z,3.55
2023-01-07T13:58:46.106Z,3.20
2023-01-07T14:05:19.751Z,2.92
2023-01-07T14:19:37.328Z,2.77
2023-01-07T14:32:33.006Z,3.42
2023-01-07T14:35:10.397Z,4.00
2023-01-07T14:37:42.274Z,3.17
2023-01-07T14:40:27.328Z,6.07
2023-01-07T14:42:55.558Z,3.20
2023-01-07T14:45:37.966Z,5.82
2023-01-07T14:48:10.616Z,1.50
2023-01-07T14:51:11.317Z,2.40
2023-01-07T14:54:20.289Z,2.25
2023-01-07T14:57:14.623Z,3.60
2023-01-07T14:59:52.837Z,2.50
2023-01-07T15:02:28.762Z,5.57
2023-01-07T15:05:18.844Z,4.32
2023-01-07T15:07:52.102Z,6.97
2023-01-07T15:10:39.410Z,7.07
2023-01-07T15:13:26.744Z,4.57
2023-01-07T15:16:03.621Z,2.83
2023-01-07T15:18:33.867Z,4.90
2023-01-07T15:21:19.217Z,4.53
2023-01-07T15:23:59.510Z,3.35
2023-01-07T15:26:47.592Z,3.97
2023-01-07T15:29:25.853Z,3.78
2023-01-07T15:32:03.461Z,4.20
2023-01-07T15:34:33.104Z,4.40
2023-01-07T15:37:04.952Z,6.72
2023-01-07T15:42:22.094Z,8.10
2023-01-07T15:44:53.315Z,9.77
2023-01-07T15:47:43.604Z,12.88
2023-01-07T15:50:23.690Z,7.78
2023-01-07T15:52:56.039Z,12.73
2023-01-07T15:55:30.459Z,8.93
2023-01-07T15:58:02.967Z,10.15
2023-01-07T16:00:30.199Z,6.85
2023-01-07T16:02:57.676Z,6.88
2023-01-07T16:05:28.106Z,9.57
2023-01-07T16:07:56.252Z,10.05
2023-01-07T16:10:31.969Z,9.15
2023-01-07T16:13:06.634Z,14.00
2023-01-07T16:15:35.223Z,9.02
2023-01-07T16:18:18.934Z,13.38
2023-01-07T16:21:03.901Z,10.93
2023-01-07T16:23:32.721Z,11.35
2023-01-07T16:26:27.386Z,12.88
2023-01-07T16:29:02.301Z,12.70
2023-01-07T16:31:30.843Z,12.63
2023-01-07T16:33:59.764Z,13.88
2023-01-07T16:36:36.884Z,12.73
2023-01-07T16:39:18.572Z,15.98
2023-01-07T16:41:45.392Z,14.23
2023-01-07T16:44:49.448Z,11.43
2023-01-07T16:47:28.224Z,12.32
2023-01-07T16:49:56.371Z,13.57
2023-01-07T16:52:31.684Z,13.40
2023-01-07T16:54:58.560Z,10.45
2023-01-07T16:57:29.902Z,12.68
2023-01-07T16:59:58.794Z,13.68
2023-01-07T17:02:40.277Z,11.88
2023-01-07T17:05:33.750Z,14.30
2023-01-07T17:08:05.221Z,13.02
2023-01-07T17:10:37.793Z,11.98
2023-01-07T17:13:26.440Z,13.27
2023-01-07T17:16:16.220Z,20.70
2023-01-07T17:18:42.993Z,13.98
2023-01-07T17:21:36.910Z,13.68
2023-01-07T17:24:04.038Z,14.77
2023-01-07T17:26:40.847Z,14.68
2023-01-07T17:29:13.105Z,17.15
2023-01-07T17:31:40.822Z,18.48
2023-01-07T17:34:11.391Z,16.50
2023-01-07T17:36:38.326Z,14.57
2023-01-07T17:39:05.176Z,16.13
2023-01-07T17:41:53.864Z,15.15
2023-01-07T17:44:20.681Z,14.88
2023-01-07T17:47:15.807Z,15.45
2023-01-07T17:49:42.586Z,17.13
2023-01-07T17:52:10.666Z,13.93
2023-01-07T17:54:38.756Z,15.25
2023-01-07T17:57:06.741Z,14.88
2023-01-07T17:59:33.469Z,16.42
2023-01-07T18:02:00.691Z,17.83
2023-01-07T18:04:27.596Z,17.67
2023-01-07T18:06:54.351Z,16.95
2023-01-07T18:09:21.145Z,15.23
2023-01-07T18:12:06.829Z,13.93
2023-01-07T18:14:33.727Z,17.35
2023-01-07T18:17:00.556Z,15.30
2023-01-07T18:19:27.373Z,17.45
2023-01-07T18:21:54.205Z,17.80
2023-01-07T18:24:21.679Z,20.80
2023-01-07T18:26:48.962Z,19.83
2023-01-07T18:29:15.810Z,18.65
2023-01-07T18:31:44.518Z,19.15
2023-01-07T18:34:13.203Z,20.65
2023-01-07T18:36:40.015Z,18.10
2023-01-07T18:39:09.930Z,17.05
2023-01-07T18:41:39.594Z,19.30
2023-01-07T18:44:06.589Z,20.00
2023-01-07T18:46:33.752Z,16.88
2023-01-07T18:49:00.572Z,21.13
2023-01-07T18:51:27.405Z,21.38
2023-01-07T18:53:54.206Z,20.13
2023-01-07T18:56:20.966Z,22.23
2023-01-07T18:58:48.144Z,21.27
2023-01-07T19:01:15.073Z,20.15
2023-01-07T19:03:42.111Z,20.38
2023-01-07T19:06:10.295Z,22.23
2023-01-07T19:08:38.347Z,24.52
2023-01-07T19:11:09.833Z,22.15
2023-01-07T19:13:36.842Z,22.63
2023-01-07T19:16:11.486Z,21.55
2023-01-07T19:18:38.848Z,23.20
2023-01-07T19:21:08.213Z,25.33
2023-01-07T19:23:35.044Z,28.08
2023-01-07T19:26:07.150Z,25.02
2023-01-07T19:28:33.952Z,22.08
2023-01-07T19:31:05.126Z,23.63
2023-01-07T19:33:32.077Z,23.25
2023-01-07T19:36:04.028Z,22.02
2023-01-07T19:38:31.033Z,25.90
2023-01-07T19:40:57.885Z,23.58
2023-01-07T19:43:24.857Z,18.88
2023-01-07T19:45:54.537Z,25.13
2023-01-07T19:48:21.839Z,19.88
2023-01-07T19:50:59.334Z,24.17
2023-01-07T19:53:27.116Z,25.75
2023-01-07T19:55:54.557Z,22.38
2023-01-07T19:58:21.830Z,26.13
2023-01-07T20:00:48.840Z,27.08
2023-01-07T20:03:15.983Z,23.33
2023-01-07T20:05:42.810Z,21.23
2023-01-07T20:08:09.629Z,26.17
2023-01-07T20:10:36.581Z,22.33
2023-01-07T20:13:03.662Z,26.88
2023-01-07T20:15:30.465Z,27.30
2023-01-07T20:17:57.192Z,28.27
2023-01-07T20:20:24.432Z,25.77
2023-01-07T20:22:52.229Z,24.08
2023-01-07T20:25:19.203Z,26.77
2023-01-07T20:27:46.000Z,29.00
2023-01-07T20:30:13.255Z,29.13
2023-01-07T20:32:40.005Z,27.30
2023-01-07T20:35:07.475Z,29.38
2023-01-07T20:37:35.017Z,27.65
2023-01-07T20:40:01.780Z,28.73
2023-01-07T20:42:28.535Z,26.30
2023-01-07T20:44:55.433Z,28.77
2023-01-07T20:47:22.181Z,29.52
2023-01-07T20:49:48.949Z,37.42
2023-01-07T20:52:15.784Z,29.08
2023-01-07T20:54:42.526Z,29.27
2023-01-07T20:57:09.798Z,27.67
2023-01-07T20:59:36.575Z,28.73
2023-01-07T21:02:03.538Z,28.75
2023-01-07T21:04:30.484Z,24.52
2023-01-07T21:06:57.211Z,29.90
2023-01-07T21:09:24.130Z,23.02
2023-01-07T21:11:50.894Z,26.77
2023-01-07T21:14:17.756Z,23.77
2023-01-07T21:16:44.647Z,30.73
2023-01-07T21:19:11.420Z,26.50
2023-01-07T21:21:38.169Z,29.63
2023-01-07T21:24:05.165Z,25.10
2023-01-07T21:26:31.998Z,27.83
2023-01-07T21:28:59.123Z,35.55
2023-01-07T21:31:26.803Z,35.15
2023-01-07T21:33:57.962Z,35.47
2023-01-07T21:36:26.575Z,41.70
2023-01-07T21:38:58.129Z,34.03
2023-01-07T21:41:25.872Z,33.75
2023-01-07T21:43:52.749Z,33.42
2023-01-07T21:46:22.447Z,36.63
2023-01-07T21:48:50.141Z,32.05
2023-01-07T21:51:20.090Z,28.75
2023-01-07T21:53:47.203Z,31.40
2023-01-07T21:56:17.861Z,36.95
2023-01-07T21:58:46.154Z,34.45
2023-01-07T22:01:14.145Z,37.95
2023-01-07T22:03:44.773Z,30.85
2023-01-07T22:06:23.768Z,32.30
2023-01-07T22:08:54.816Z,33.08
2023-01-07T22:11:21.982Z,30.00
2023-01-07T22:13:57.603Z,32.70
2023-01-07T22:16:25.803Z,38.83
2023-01-07T22:18:52.697Z,34.17
2023-01-07T22:21:20.360Z,30.27
2023-01-07T22:23:48.107Z,40.67
2023-01-07T22:26:17.234Z,32.90
2023-01-07T22:28:55.337Z,31.35
2023-01-07T22:31:30.954Z,33.15
2023-01-07T22:33:57.830Z,35.88
2023-01-07T22:36:43.454Z,36.20
2023-01-07T22:39:17.521Z,35.95
2023-01-07T22:41:45.086Z,35.92
2023-01-07T22:44:20.306Z,37.97
2023-01-07T22:46:49.732Z,34.28
2023-01-07T22:49:17.579Z,40.58
2023-01-07T22:51:47.974Z,52.58
2023-01-07T22:54:16.211Z,95.50
2023-01-07T22:56:44.164Z,112.03
2023-01-07T22:59:10.966Z,180.20
2023-01-07T23:01:38.336Z,95.03
2023-01-07T23:04:05.299Z,57.40
2023-01-07T23:06:32.619Z,65.85
2023-01-07T23:08:59.486Z,79.05
2023-01-07T23:11:44.905Z,110.20
2023-01-07T23:14:11.719Z,102.03
2023-01-07T23:16:38.623Z,62.83
2023-01-07T23:19:05.747Z,62.22
2023-01-07T23:21:32.621Z,81.32
2023-01-07T23:23:59.980Z,144.68
2023-01-07T23:26:26.742Z,104.63
2023-01-07T23:28:53.491Z,119.05
2023-01-07T23:31:20.549Z,51.75
2023-01-07T23:33:47.391Z,57.85
2023-01-07T23:36:14.199Z,182.32
2023-01-07T23:38:40.981Z,52.85
2023-01-07T23:41:09.832Z,54.40
2023-01-07T23:43:37.046Z,42.50
2023-01-07T23:46:06.093Z,45.00
2023-01-07T23:48:34.937Z,39.92
2023-01-07T23:51:20.976Z,37.88
2023-01-07T23:53:48.135Z,42.13
2023-01-07T23:56:18.925Z,46.85
2023-01-07T23:58:45.689Z,45.67
